Time;durP1;ratioP1;P1;durP2;ratioP2;P2;SDS_P1;SDS_P2;PMS_P1;PMS_P2;Temp;Humidity;BMP_temperature;BMP_pressure;BME280_temperature;BME280_humidity;BME280_pressure;Samples;Min_cycle;Max_cycle;Signal;HPM_P1;HPM_P2
2022/05/26 00:00:13;;;;;;;0.50;0.50;;;14.90;57.80;14.30;98753.00;;;;5119546;28;20205;-71
2022/05/26 00:02:40;;;;;;;0.40;0.40;;;14.90;57.30;14.40;98751.00;;;;5137712;28;20310;-71
2022/05/26 00:05:08;;;;;;;0.60;0.60;;;14.90;57.10;14.40;98758.00;;;;5137352;28;20190;-71
2022/05/26 00:07:37;;;;;;;2.87;1.13;;;15.00;56.30;14.50;98754.00;;;;5137435;28;20534;-71
2022/05/26 00:10:05;;;;;;;0.50;0.50;;;15.00;54.90;14.60;98761.00;;;;5137326;28;20633;-71
2022/05/26 00:12:34;;;;;;;0.60;0.60;;;15.00;53.70;14.60;98754.00;;;;5137263;28;20271;-71
2022/05/26 00:15:01;;;;;;;0.40;0.40;;;15.10;53.00;14.60;98760.00;;;;5137311;28;20197;-71
2022/05/26 00:17:28;;;;;;;0.83;0.77;;;15.10;52.80;14.60;98757.00;;;;5137232;28;20625;-71
2022/05/26 00:19:56;;;;;;;0.40;0.40;;;15.10;52.80;14.70;98764.00;;;;5137181;28;20233;-71
2022/05/26 00:22:22;;;;;;;0.57;0.57;;;15.20;52.30;14.70;98757.00;;;;5119131;28;20588;-71
2022/05/26 00:24:52;;;;;;;0.47;0.47;;;15.20;51.90;14.90;98737.00;;;;5137217;28;20670;-71
2022/05/26 00:27:18;;;;;;;0.53;0.53;;;15.30;51.60;14.70;98760.00;;;;5137081;28;20527;-71
2022/05/26 00:29:45;;;;;;;1.80;0.80;;;15.30;51.50;14.80;98760.00;;;;5137088;28;20185;-71
2022/05/26 00:32:13;;;;;;;0.60;0.60;;;15.30;52.40;14.70;98751.00;;;;5137108;28;20315;-71
2022/05/26 00:34:40;;;;;;;0.83;0.83;;;15.30;51.80;14.80;98766.00;;;;5137208;28;20574;-71
2022/05/26 00:37:11;;;;;;;0.43;0.43;;;15.40;51.50;15.00;98758.00;;;;5118869;28;20197;-71
2022/05/26 00:39:39;;;;;;;4.57;0.70;;;15.50;51.20;15.10;98767.00;;;;5136382;27;20221;-71
2022/05/26 00:42:08;;;;;;;0.50;0.50;;;15.60;50.80;15.00;98764.00;;;;5136858;28;20240;-71
2022/05/26 00:44:36;;;;;;;0.60;0.60;;;15.50;50.80;14.90;98748.00;;;;5136854;28;20308;-71
2022/05/26 00:47:11;;;;;;;0.57;0.57;;;15.50;50.70;14.90;98757.00;;;;5136755;28;20261;-71
2022/05/26 00:49:44;;;;;;;0.53;0.53;;;15.50;50.30;15.10;98754.00;;;;5118772;28;20215;-71
2022/05/26 00:52:19;;;;;;;0.60;0.60;;;15.60;50.10;15.20;98766.00;;;;5136754;28;20285;-71
2022/05/26 00:54:53;;;;;;;0.43;0.43;;;15.70;49.50;15.30;98760.00;;;;5136701;28;20625;-71
2022/05/26 00:57:25;;;;;;;0.50;0.50;;;15.80;49.40;15.30;98753.00;;;;5118560;28;20205;-71
2022/05/26 01:00:00;;;;;;;0.50;0.50;;;15.80;49.30;15.10;98770.00;;;;5136554;28;20217;-71
2022/05/26 01:02:34;;;;;;;0.50;0.50;;;15.80;49.50;15.10;98759.00;;;;5118844;28;20579;-71
2022/05/26 01:05:09;;;;;;;0.50;0.50;;;15.70;49.60;15.00;98760.00;;;;5118494;28;20254;-71
2022/05/26 01:07:40;;;;;;;0.50;0.50;;;15.60;49.80;15.10;98764.00;;;;5136458;28;20205;-71
2022/05/26 01:10:13;;;;;;;0.43;0.43;;;15.60;49.60;15.10;98757.00;;;;5136533;28;20180;-71
2022/05/26 01:12:40;;;;;;;0.40;0.40;;;15.70;49.80;15.10;98759.00;;;;5136326;28;20209;-71
2022/05/26 01:15:12;;;;;;;0.53;0.53;;;15.70;49.60;15.10;98752.00;;;;5136367;28;20620;-72
2022/05/26 01:17:58;;;;;;;0.40;0.40;;;15.70;50.20;15.00;98761.00;;;;5136317;28;20229;-71
2022/05/26 01:20:42;;;;;;;3.77;1.47;;;15.60;50.50;15.10;98752.00;;;;5136340;28;20280;-71
2022/05/26 01:24:14;;;;;;;0.40;0.40;;;15.60;51.10;14.90;98749.00;;;;5118324;28;20606;-71
2022/05/26 01:27:27;;;;;;;0.70;0.70;;;15.50;50.90;14.80;98753.00;;;;5101790;28;20212;-71
2022/05/26 01:30:20;;;;;;;0.70;0.67;;;15.50;51.00;14.70;98753.00;;;;5034036;28;20231;-71
2022/05/26 01:33:24;;;;;;;0.50;0.50;;;15.40;51.40;14.70;98748.00;;;;5139160;28;20297;-72
2022/05/26 01:36:15;;;;;;;0.50;0.50;;;15.30;51.50;14.70;98753.00;;;;5102616;28;20273;-71
2022/05/26 01:38:57;;;;;;;2.03;1.27;;;15.30;51.40;14.70;98744.00;;;;5136063;28;20266;-71
2022/05/26 01:42:08;;;;;;;0.50;0.50;;;15.30;51.90;14.70;98746.00;;;;5135974;28;20232;-71
2022/05/26 01:44:50;;;;;;;0.50;0.50;;;15.30;50.70;14.60;98753.00;;;;5117962;28;20258;-71
2022/05/26 01:47:37;;;;;;;0.60;0.60;;;15.10;51.30;14.60;98747.00;;;;5135873;28;20276;-70
2022/05/26 01:50:16;;;;;;;0.40;0.40;;;15.10;51.00;14.60;98759.00;;;;5135844;28;20286;-71
2022/05/26 01:53:06;;;;;;;0.50;0.50;;;15.20;50.80;14.70;98758.00;;;;5134752;27;20240;-71
2022/05/26 01:55:45;;;;;;;0.50;0.50;;;15.20;50.60;14.60;98757.00;;;;5117855;28;20201;-71
2022/05/26 01:58:20;;;;;;;0.73;0.73;;;15.20;50.50;14.60;98754.00;;;;5117400;28;20233;-71
2022/05/26 02:00:47;;;;;;;0.53;0.53;;;15.10;50.80;14.40;98761.00;;;;5135639;28;20287;-71
2022/05/26 02:03:21;;;;;;;0.40;0.40;;;15.00;51.50;14.50;98742.00;;;;5135586;28;20189;-71
2022/05/26 02:05:57;;;;;;;0.60;0.60;;;15.00;51.80;14.20;98746.00;;;;5135528;28;20293;-71
2022/05/26 02:08:32;;;;;;;0.50;0.50;;;14.90;52.30;14.30;98748.00;;;;5135525;28;20265;-71
2022/05/26 02:11:09;;;;;;;0.50;0.50;;;14.90;53.30;14.30;98755.00;;;;5135573;28;20200;-71
2022/05/26 02:13:42;;;;;;;0.97;0.80;;;14.90;52.80;14.30;98757.00;;;;5117534;28;20204;-71
2022/05/26 02:16:16;;;;;;;0.70;0.70;;;14.90;53.30;14.40;98757.00;;;;5135391;28;20262;-71
2022/05/26 02:18:53;;;;;;;0.50;0.50;;;14.90;53.90;14.20;98756.00;;;;5135278;28;20694;-71
2022/05/26 02:21:31;;;;;;;0.60;0.60;;;14.80;53.90;14.10;98761.00;;;;5135350;28;20192;-71
2022/05/26 02:24:06;;;;;;;0.60;0.60;;;14.80;53.20;14.20;98758.00;;;;5135360;28;20193;-71
2022/05/26 02:26:37;;;;;;;0.50;0.50;;;14.70;53.90;14.20;98756.00;;;;5135266;28;20200;-72
2022/05/26 02:31:53;;;;;;;0.40;0.40;;;14.70;55.20;14.10;98751.00;;;;5117011;28;20245;-71
2022/05/26 02:34:24;;;;;;;0.60;0.60;;;14.70;55.00;14.10;98754.00;;;;5135158;28;20208;-70
2022/05/26 02:36:56;;;;;;;0.60;0.60;;;14.60;55.10;14.10;98754.00;;;;5135087;28;20296;-71
2022/05/26 02:39:22;;;;;;;0.50;0.50;;;14.60;55.80;14.00;98752.00;;;;5134887;28;20224;-71
2022/05/26 02:41:55;;;;;;;0.50;0.50;;;14.60;55.60;14.00;98749.00;;;;5135037;28;20198;-71
2022/05/26 02:44:23;;;;;;;0.50;0.50;;;14.50;55.90;14.00;98752.00;;;;5134912;28;20570;-71
2022/05/26 02:47:06;;;;;;;0.40;0.40;;;14.50;56.40;13.90;98757.00;;;;5117086;28;20197;-71
2022/05/26 02:50:00;;;;;;;0.50;0.50;;;14.50;56.60;13.90;98761.00;;;;5134994;28;20197;-71
2022/05/26 02:52:37;;;;;;;0.43;0.43;;;14.50;56.60;14.00;98757.00;;;;5134891;28;20308;-71
2022/05/26 02:55:18;;;;;;;0.60;0.60;;;14.50;56.00;14.00;98752.00;;;;5134866;28;20201;-71
2022/05/26 02:58:02;;;;;;;0.50;0.50;;;14.50;56.00;13.80;98756.00;;;;5134665;28;20228;-71
2022/05/26 03:00:43;;;;;;;0.50;0.50;;;14.50;57.40;13.90;98764.00;;;;5134689;28;20193;-71
2022/05/26 03:03:19;;;;;;;0.53;0.53;;;14.40;57.60;13.80;98764.00;;;;5116525;28;20614;-71
2022/05/26 03:05:55;;;;;;;0.50;0.50;;;14.50;58.00;14.00;98762.00;;;;5134575;28;20217;-71
2022/05/26 03:08:27;;;;;;;0.67;0.67;;;14.50;58.20;13.80;98754.00;;;;5134660;28;20204;-71
2022/05/26 03:11:10;;;;;;;0.47;0.47;;;14.40;58.20;13.90;98755.00;;;;5134616;28;20188;-71
2022/05/26 03:13:40;;;;;;;0.50;0.50;;;14.40;57.30;14.00;98752.00;;;;5134493;28;20637;-70
2022/05/26 03:16:07;;;;;;;0.50;0.50;;;14.40;58.20;13.90;98763.00;;;;5134733;28;20257;-71
2022/05/26 03:18:34;;;;;;;0.80;0.80;;;14.40;57.80;13.90;98769.00;;;;5134538;28;20216;-71
2022/05/26 03:21:03;;;;;;;0.60;0.60;;;14.50;57.90;13.90;98765.00;;;;5134665;28;20521;-71
2022/05/26 03:23:31;;;;;;;0.40;0.40;;;14.40;58.10;13.90;98757.00;;;;5134455;28;20629;-71
2022/05/26 03:25:59;;;;;;;0.70;0.70;;;14.40;58.60;13.80;98764.00;;;;5134346;28;20285;-71
2022/05/26 03:28:27;;;;;;;0.50;0.50;;;14.40;59.20;13.80;98764.00;;;;5134364;28;20198;-71
2022/05/26 03:30:55;;;;;;;0.50;0.50;;;14.30;59.20;13.80;98772.00;;;;5134345;28;20193;-71
2022/05/26 03:33:21;;;;;;;0.60;0.60;;;14.30;58.80;13.80;98767.00;;;;5134304;28;20253;-71
2022/05/26 03:41:27;;;;;;;0.60;0.60;;;14.30;58.10;13.70;98772.00;;;;5134194;28;20247;-71
2022/05/26 03:43:59;;;;;;;0.63;0.63;;;14.30;58.50;13.70;98753.00;;;;5134222;28;20216;-71
2022/05/26 03:46:26;;;;;;;0.40;0.40;;;14.30;55.90;13.80;98782.00;;;;5134175;28;20289;-69
2022/05/26 03:48:55;;;;;;;0.40;0.40;;;14.30;55.70;13.80;98771.00;;;;5134105;28;20201;-71
2022/05/26 03:51:21;;;;;;;0.60;0.60;;;14.30;55.70;13.90;98780.00;;;;5134030;28;20307;-71
2022/05/26 03:53:48;;;;;;;0.40;0.40;;;14.30;55.50;13.90;98780.00;;;;5134079;28;20223;-71
2022/05/26 03:56:15;;;;;;;0.47;0.47;;;14.40;55.10;13.90;98793.00;;;;5134021;28;20703;-71
2022/05/26 03:58:44;;;;;;;0.50;0.50;;;14.40;54.60;14.00;98784.00;;;;5133902;28;20304;-71
2022/05/26 04:01:10;;;;;;;0.60;0.60;;;14.50;54.80;14.10;98791.00;;;;5134043;28;20624;-71
2022/05/26 04:03:37;;;;;;;0.50;0.50;;;14.60;55.30;14.10;98785.00;;;;5133909;28;20197;-71
2022/05/26 04:06:03;;;;;;;0.50;0.50;;;14.60;55.00;14.10;98788.00;;;;5134074;28;20274;-71
2022/05/26 04:08:30;;;;;;;0.50;0.50;;;14.70;54.60;14.10;98798.00;;;;5133975;28;20654;-71
2022/05/26 04:10:57;;;;;;;0.60;0.60;;;14.60;54.90;14.10;98795.00;;;;5133947;28;20209;-70
2022/05/26 04:13:24;;;;;;;0.50;0.50;;;14.60;54.40;14.10;98805.00;;;;5133840;28;20282;-71
2022/05/26 04:15:50;;;;;;;0.53;0.53;;;14.60;55.10;14.20;98801.00;;;;5136026;27;20201;-71
2022/05/26 04:18:17;;;;;;;0.40;0.40;;;14.80;54.10;14.10;98807.00;;;;5137203;28;20694;-71
2022/05/26 04:20:45;;;;;;;0.43;0.43;;;14.70;54.40;14.10;98814.00;;;;5137280;28;20270;-71
2022/05/26 04:23:14;;;;;;;0.50;0.50;;;14.70;54.40;14.30;98813.00;;;;5137231;28;20197;-71
2022/05/26 04:25:43;;;;;;;0.67;0.67;;;14.70;54.00;14.20;98826.00;;;;5137077;28;20656;-71
2022/05/26 04:28:10;;;;;;;0.50;0.50;;;14.80;53.60;14.20;98818.00;;;;5137129;28;20193;-71
2022/05/26 04:30:37;;;;;;;0.73;0.73;;;14.70;54.00;14.10;98817.00;;;;5137152;28;20253;-71
2022/05/26 04:33:03;;;;;;;0.50;0.50;;;14.70;54.30;14.10;98823.00;;;;5118957;28;20651;-71
2022/05/26 04:35:30;;;;;;;0.50;0.50;;;14.70;54.30;14.10;98826.00;;;;5136997;28;20284;-71
2022/05/26 04:37:57;;;;;;;0.50;0.50;;;14.60;53.90;14.10;98826.00;;;;5136921;28;20589;-71
2022/05/26 04:40:23;;;;;;;0.40;0.40;;;14.60;54.00;14.00;98829.00;;;;5119044;28;20201;-71
2022/05/26 04:42:50;;;;;;;0.60;0.60;;;14.50;54.60;14.00;98831.00;;;;5136983;28;20276;-71
2022/05/26 04:45:17;;;;;;;0.60;0.60;;;14.60;54.30;14.00;98825.00;;;;5136734;28;20232;-71
2022/05/26 04:47:43;;;;;;;0.73;0.73;;;14.50;54.20;14.10;98826.00;;;;5136820;28;20192;-71
2022/05/26 04:50:11;;;;;;;0.40;0.40;;;14.60;53.50;14.10;98838.00;;;;5118809;28;20197;-71
2022/05/26 04:52:41;;;;;;;4.13;0.87;;;14.60;54.00;14.20;98830.00;;;;5136652;28;20235;-71
2022/05/26 04:55:09;;;;;;;0.60;0.60;;;14.70;53.80;14.30;98835.00;;;;5136669;28;20212;-71
2022/05/26 04:57:35;;;;;;;0.50;0.50;;;14.80;53.70;14.30;98836.00;;;;5136541;28;20189;-71
2022/05/26 05:00:07;;;;;;;0.73;0.73;;;14.90;53.60;14.40;98833.00;;;;5136652;28;20201;-71
2022/05/26 05:02:34;;;;;;;0.57;0.57;;;14.90;53.80;14.50;98835.00;;;;5136786;28;20201;-71
2022/05/26 05:05:02;;;;;;;0.60;0.60;;;14.90;53.50;14.50;98841.00;;;;5136561;28;20274;-71
2022/05/26 05:07:29;;;;;;;0.40;0.40;;;14.90;53.20;14.50;98841.00;;;;5118592;28;20663;-71
2022/05/26 05:09:55;;;;;;;0.50;0.50;;;15.00;53.10;14.50;98843.00;;;;5136451;28;20253;-71
2022/05/26 05:12:26;;;;;;;0.50;0.50;;;15.10;52.70;14.70;98841.00;;;;5136431;28;20213;-71
2022/05/26 05:14:56;;;;;;;0.63;0.63;;;15.20;52.10;14.60;98842.00;;;;5136422;28;20189;-71
2022/05/26 05:17:26;;;;;;;0.50;0.50;;;15.10;52.80;14.70;98845.00;;;;5136299;28;20244;-71
2022/05/26 05:19:53;;;;;;;0.40;0.40;;;15.10;52.60;14.60;98848.00;;;;5136257;28;20246;-71
2022/05/26 05:22:24;;;;;;;0.60;0.60;;;15.20;52.80;14.70;98844.00;;;;5136436;28;20221;-71
2022/05/26 05:25:01;;;;;;;0.63;0.63;;;15.20;53.00;14.80;98851.00;;;;5118420;28;20286;-71
2022/05/26 05:27:38;;;;;;;0.50;0.50;;;15.30;52.40;14.70;98857.00;;;;5136238;27;20272;-71
2022/05/26 05:30:13;;;;;;;0.50;0.50;;;15.30;52.60;14.80;98868.00;;;;5136260;28;20330;-71
2022/05/26 05:32:44;;;;;;;0.70;0.70;;;15.30;53.50;14.80;98869.00;;;;5136162;28;20278;-71
2022/05/26 05:35:17;;;;;;;0.50;0.50;;;15.30;52.80;15.10;98871.00;;;;5118094;28;20569;-71
2022/05/26 05:37:44;;;;;;;3.50;0.90;;;15.50;52.40;15.00;98866.00;;;;5135873;28;20217;-71
2022/05/26 05:40:14;;;;;;;0.50;0.50;;;15.60;52.50;15.20;98875.00;;;;5135957;28;20205;-71
2022/05/26 05:42:43;;;;;;;0.50;0.50;;;15.60;51.50;15.30;98872.00;;;;5135916;28;20616;-71
2022/05/26 05:45:10;;;;;;;0.50;0.50;;;15.70;52.30;15.30;98878.00;;;;5135794;28;20793;-71
2022/05/26 05:47:37;;;;;;;0.50;0.50;;;15.80;51.30;15.30;98878.00;;;;5135458;28;20222;-71
2022/05/26 05:50:04;;;;;;;0.40;0.40;;;15.80;50.50;15.30;98860.00;;;;5135874;28;20272;-71
2022/05/26 05:52:36;;;;;;;0.40;0.40;;;15.80;51.10;15.50;98877.00;;;;5136037;28;20221;-71
2022/05/26 05:55:04;;;;;;;0.40;0.40;;;15.90;51.10;15.50;98880.00;;;;5135744;28;20205;-71
2022/05/26 05:57:31;;;;;;;0.50;0.50;;;15.90;51.00;15.60;98881.00;;;;5135706;28;20507;-71
2022/05/26 05:59:57;;;;;;;0.60;0.60;;;16.00;50.70;15.70;98889.00;;;;5135602;28;20277;-71
2022/05/26 06:02:24;;;;;;;0.50;0.50;;;16.10;50.90;15.60;98889.00;;;;5135586;28;20225;-71
2022/05/26 06:04:50;;;;;;;0.70;0.70;;;16.10;50.20;15.70;98889.00;;;;5135575;28;20297;-71
2022/05/26 06:07:20;;;;;;;0.50;0.50;;;16.20;49.80;15.70;98884.00;;;;5135796;28;20299;-71
2022/05/26 06:09:48;;;;;;;0.40;0.40;;;16.20;50.30;15.80;98887.00;;;;5136564;28;20213;-71
2022/05/26 06:12:16;;;;;;;0.50;0.50;;;16.30;51.10;15.80;98887.00;;;;5143135;28;20197;-71
2022/05/26 06:14:44;;;;;;;0.50;0.50;;;16.30;49.50;15.80;98887.00;;;;5139786;28;20186;-71
2022/05/26 06:17:12;;;;;;;0.40;0.40;;;16.30;49.60;15.90;98895.00;;;;5135558;28;20205;-71
2022/05/26 06:19:41;;;;;;;0.50;0.50;;;16.40;49.70;16.00;98892.00;;;;5135307;28;20221;-71
2022/05/26 06:22:10;;;;;;;0.40;0.40;;;16.40;50.60;16.00;98901.00;;;;5135360;28;20200;-71
2022/05/26 06:24:37;;;;;;;0.60;0.60;;;16.40;50.00;16.30;98905.00;;;;5117136;28;20228;-72
2022/05/26 06:29:51;;;;;;;2.93;1.37;;;16.70;49.80;16.30;98909.00;;;;5134355;28;20231;-72
2022/05/26 06:37:52;;;;;;;0.50;0.50;;;16.90;49.30;16.60;98910.00;;;;5134538;27;20208;-71
2022/05/26 06:40:20;;;;;;;0.67;0.67;;;16.90;49.20;16.70;98914.00;;;;5135615;28;20651;-72
2022/05/26 06:42:48;;;;;;;0.50;0.50;;;17.20;48.00;16.80;98907.00;;;;5120154;28;20296;-72
2022/05/26 06:45:18;;;;;;;0.40;0.40;;;17.20;48.30;16.80;98912.00;;;;5139166;28;20193;-72
2022/05/26 06:47:46;;;;;;;0.60;0.60;;;17.20;47.90;16.90;98918.00;;;;5136412;28;20209;-72
2022/05/26 06:50:16;;;;;;;0.50;0.50;;;17.30;47.90;17.00;98930.00;;;;5135053;28;20236;-72
2022/05/26 06:52:42;;;;;;;0.50;0.50;;;17.40;44.50;16.90;98927.00;;;;5116780;28;20228;-72
2022/05/26 06:55:11;;;;;;;0.50;0.50;;;17.40;44.80;16.90;98928.00;;;;5116852;28;20201;-72
2022/05/26 06:57:37;;;;;;;0.50;0.50;;;17.30;45.90;17.00;98926.00;;;;5134616;28;20284;-71
2022/05/26 07:00:12;;;;;;;0.40;0.40;;;17.40;45.70;17.20;98928.00;;;;5134667;28;20221;-72
2022/05/26 07:02:39;;;;;;;0.50;0.50;;;17.60;43.40;17.00;98925.00;;;;5134730;28;20609;-72
2022/05/26 07:05:10;;;;;;;0.60;0.60;;;17.60;44.00;17.20;98942.00;;;;5134695;28;20207;-72
2022/05/26 07:07:40;;;;;;;0.50;0.50;;;17.70;42.80;17.20;98944.00;;;;5134655;28;20247;-71
2022/05/26 07:10:09;;;;;;;0.63;0.63;;;17.60;42.60;17.20;98945.00;;;;5134395;28;20252;-72
2022/05/26 07:12:38;;;;;;;0.40;0.40;;;17.70;43.40;17.20;98941.00;;;;5134790;28;20213;-72
2022/05/26 07:15:10;;;;;;;0.40;0.40;;;17.70;42.80;17.30;98951.00;;;;5134537;28;20229;-72
2022/05/26 07:17:38;;;;;;;0.40;0.40;;;17.70;43.00;17.20;98934.00;;;;5134502;28;20543;-72
2022/05/26 07:20:07;;;;;;;0.40;0.40;;;17.70;42.90;17.30;98949.00;;;;5134324;28;20214;-72
2022/05/26 07:22:34;;;;;;;0.50;0.50;;;17.80;43.70;17.50;98951.00;;;;5134434;28;20326;-73
2022/05/26 07:25:00;;;;;;;0.50;0.50;;;;;17.70;98955.00;;;;5134448;28;20197;-72
2022/05/26 07:27:29;;;;;;;0.50;0.50;;;18.20;42.00;18.00;98957.00;;;;5134507;28;20201;-72
2022/05/26 07:29:56;;;;;;;0.40;0.40;;;18.30;41.90;18.00;98952.00;;;;5134460;28;20718;-72
2022/05/26 07:32:25;;;;;;;1.03;0.60;;;18.50;40.00;18.00;98951.00;;;;5134266;28;20232;-71
2022/05/26 07:34:52;;;;;;;0.40;0.40;;;18.50;40.70;17.80;98954.00;;;;5116328;28;20294;-72
2022/05/26 07:42:50;;;;;;;0.40;0.40;;;18.30;40.20;17.70;98966.00;;;;5134187;28;20217;-73
2022/05/26 07:45:17;;;;;;;0.40;0.40;;;18.30;40.90;17.80;98970.00;;;;5134050;28;20197;-73
2022/05/26 07:47:44;;;;;;;0.40;0.40;;;18.30;41.40;17.70;98970.00;;;;5116045;28;20209;-73
2022/05/26 07:50:19;;;;;;;0.93;0.93;;;18.20;41.50;17.90;98965.00;;;;5135352;27;20190;-73
2022/05/26 07:52:46;;;;;;;1.10;0.80;;;18.30;42.50;18.20;98964.00;;;;5137602;28;20192;-73
2022/05/26 07:55:13;;;;;;;0.50;0.50;;;18.60;41.60;18.10;98971.00;;;;5137595;28;20197;-72
2022/05/26 07:57:39;;;;;;;0.40;0.40;;;18.50;41.80;18.10;98968.00;;;;5137497;28;20253;-72
2022/05/26 08:00:08;;;;;;;0.70;0.70;;;18.50;41.30;18.10;98978.00;;;;5137518;28;20221;-71
2022/05/26 08:02:37;;;;;;;0.40;0.40;;;18.50;41.30;17.80;98981.00;;;;5137516;28;20212;-75
2022/05/26 08:05:09;;;;;;;0.40;0.40;;;18.30;41.60;17.80;98979.00;;;;5137330;28;20213;-75
2022/05/26 08:07:35;;;;;;;0.57;0.57;;;18.40;42.00;17.90;98981.00;;;;5137464;28;20237;-75
2022/05/26 08:10:03;;;;;;;0.40;0.40;;;18.30;41.90;18.00;98980.00;;;;5137267;28;20252;-71
2022/05/26 08:12:32;;;;;;;0.50;0.50;;;18.40;41.50;17.90;98985.00;;;;5137365;28;20636;-73
2022/05/26 08:14:58;;;;;;;0.60;0.60;;;18.40;41.30;17.90;98979.00;;;;5137175;28;20280;-72
2022/05/26 08:17:27;;;;;;;0.40;0.40;;;18.40;41.50;18.00;98992.00;;;;5137314;28;20205;-72
2022/05/26 08:19:53;;;;;;;0.47;0.47;;;18.30;42.30;18.00;98953.00;;;;5137068;28;20289;-74
2022/05/26 08:22:20;;;;;;;0.40;0.40;;;18.40;41.90;17.90;98989.00;;;;5137143;28;20220;-74
2022/05/26 08:24:51;;;;;;;0.40;0.40;;;18.40;42.10;18.20;98993.00;;;;5137249;28;20205;-75
2022/05/26 08:27:17;;;;;;;0.40;0.40;;;18.50;41.90;18.10;98993.00;;;;5137030;28;20704;-75
2022/05/26 08:29:46;;;;;;;0.40;0.40;;;18.50;41.50;18.30;98989.00;;;;5137036;28;20194;-75
2022/05/26 08:32:16;;;;;;;0.50;0.50;;;18.70;42.60;18.40;99001.00;;;;5137042;28;20225;-75
2022/05/26 08:34:42;;;;;;;0.47;0.47;;;18.70;41.10;18.60;98995.00;;;;5137029;28;20221;-74
2022/05/26 08:37:13;;;;;;;0.50;0.50;;;18.90;40.80;18.60;98987.00;;;;5136865;28;20325;-75
2022/05/26 08:39:43;;;;;;;0.37;0.37;;;18.90;41.10;18.80;98995.00;;;;5118736;28;20548;-76
2022/05/26 08:42:19;;;;;;;0.50;0.50;;;19.10;40.40;18.90;99000.00;;;;5136722;28;20357;-76
2022/05/26 08:44:47;;;;;;;0.37;0.37;;;19.30;40.20;19.30;99007.00;;;;5136834;28;20240;-76
2022/05/26 08:47:17;;;;;;;1.97;0.87;;;19.50;40.20;19.20;99005.00;;;;5136640;28;20225;-76
2022/05/26 08:49:53;;;;;;;0.57;0.57;;;19.50;40.50;19.40;99004.00;;;;5136696;28;20592;-76
2022/05/26 08:52:25;;;;;;;0.50;0.50;;;19.70;39.80;19.30;99012.00;;;;5136570;28;20220;-77
2022/05/26 08:55:02;;;;;;;0.40;0.40;;;19.80;40.80;19.40;99009.00;;;;5136686;28;20192;-75
2022/05/26 08:57:38;;;;;;;0.40;0.40;;;19.70;39.70;19.10;99007.00;;;;5136565;28;20216;-76
2022/05/26 09:00:08;;;;;;;0.73;0.73;;;19.60;38.40;19.20;99020.00;;;;5136472;28;20265;-76
2022/05/26 09:02:38;;;;;;;0.50;0.50;;;19.60;39.70;19.20;99018.00;;;;5136129;28;20326;-77
2022/05/26 09:05:13;;;;;;;0.50;0.50;;;19.50;39.60;19.40;99015.00;;;;5136446;28;20223;-77
2022/05/26 09:13:29;;;;;;;0.60;0.60;;;19.80;39.90;19.70;99007.00;;;;5136320;28;20221;-75
2022/05/26 09:15:57;;;;;;;0.50;0.50;;;20.00;40.10;19.50;99012.00;;;;5136312;28;20632;-77
2022/05/26 09:18:24;;;;;;;0.50;0.50;;;19.90;38.60;19.50;99015.00;;;;5136098;28;20247;-75
2022/05/26 09:20:53;;;;;;;0.30;0.30;;;19.90;39.90;19.80;99018.00;;;;5136375;28;20278;-78
2022/05/26 09:23:27;;;;;;;0.50;0.50;;;20.00;40.60;19.80;99020.00;;;;5136161;28;20213;-77
2022/05/26 09:26:04;;;;;;;0.50;0.50;;;20.20;39.30;19.90;99021.00;;;;5136162;28;20270;-76
2022/05/26 09:28:42;;;;;;;0.33;0.33;;;20.30;39.10;20.10;99020.00;;;;5117918;28;20224;-76
2022/05/26 09:31:34;;;;;;;0.50;0.50;;;20.30;39.00;20.10;99024.00;;;;5136205;28;20284;-75
2022/05/26 09:34:11;;;;;;;0.40;0.40;;;20.40;38.00;20.00;99015.00;;;;5114381;28;20233;-74
2022/05/26 09:36:48;;;;;;;0.50;0.50;;;20.40;38.40;19.90;99023.00;;;;5135981;28;20205;-74
2022/05/26 09:39:19;;;;;;;5.37;1.10;;;20.40;37.70;19.60;99026.00;;;;5135772;28;20323;-75
2022/05/26 09:41:52;;;;;;;0.73;0.73;;;20.20;38.50;19.60;99024.00;;;;5135984;28;20219;-76
2022/05/26 09:44:47;;;;;;;0.57;0.57;;;20.10;38.00;19.40;99035.00;;;;5135917;28;20227;-76
2022/05/26 09:47:39;;;;;;;0.40;0.40;;;19.90;38.70;19.50;99032.00;;;;5135773;28;20225;-75
2022/05/26 09:50:13;;;;;;;0.53;0.53;;;19.90;38.80;19.70;99034.00;;;;5135773;28;20735;-76
2022/05/26 09:52:44;;;;;;;0.53;0.53;;;20.00;38.70;19.40;99032.00;;;;5135730;28;20301;-73
2022/05/26 09:55:20;;;;;;;0.40;0.40;;;19.90;39.10;19.80;99039.00;;;;5117505;28;20328;-77
2022/05/26 09:57:48;;;;;;;0.60;0.60;;;20.10;39.60;19.80;99036.00;;;;5135678;28;20654;-73
2022/05/26 10:00:38;;;;;;;0.40;0.40;;;20.10;39.20;19.90;99033.00;;;;5135439;28;20429;-73
2022/05/26 10:03:20;;;;;;;0.50;0.50;;;20.20;38.90;19.90;99036.00;;;;5135512;28;20189;-74
2022/05/26 10:06:08;;;;;;;0.50;0.50;;;20.20;38.40;19.90;99037.00;;;;5136057;28;20245;-76
2022/05/26 10:08:49;;;;;;;0.40;0.40;;;20.30;37.80;19.60;99040.00;;;;5144524;28;20197;-77
2022/05/26 10:11:35;;;;;;;0.50;0.50;;;20.20;38.90;19.90;99034.00;;;;5141018;28;20296;-74
2022/05/26 10:14:19;;;;;;;0.40;0.40;;;20.30;40.10;20.00;99040.00;;;;5134876;27;20276;-75
2022/05/26 10:16:52;;;;;;;0.53;0.53;;;;;20.20;99038.00;;;;5135539;28;20193;-75
2022/05/26 10:19:40;;;;;;;17.73;1.37;;;20.50;37.90;20.10;99043.00;;;;5135322;28;20228;-75
2022/05/26 10:22:28;;;;;;;0.57;0.57;;;20.50;38.30;20.50;99043.00;;;;5135321;28;20242;-74
2022/05/26 10:25:24;;;;;;;0.77;0.77;;;20.70;38.60;20.30;99059.00;;;;5135277;28;20196;-73
2022/05/26 10:28:12;;;;;;;0.43;0.43;;;20.70;37.70;20.30;99052.00;;;;5135273;28;20193;-76
2022/05/26 10:30:51;;;;;;;0.37;0.37;;;20.70;38.30;20.40;99010.00;;;;5135296;28;20233;-73
2022/05/26 10:33:44;;;;;;;0.50;0.50;;;20.70;38.30;20.10;99044.00;;;;5117045;28;20209;-73
2022/05/26 10:36:23;;;;;;;0.63;0.63;;;20.70;38.30;19.80;99050.00;;;;5135074;28;20216;-74
2022/05/26 10:39:08;;;;;;;0.40;0.40;;;20.40;38.20;19.60;99044.00;;;;5135112;28;20213;-74
2022/05/26 10:41:40;;;;;;;0.47;0.47;;;20.10;39.20;19.60;99047.00;;;;5134887;28;20244;-74
2022/05/26 10:44:21;;;;;;;0.40;0.40;;;20.10;40.20;20.10;99041.00;;;;5135023;28;20200;-75
2022/05/26 10:47:01;;;;;;;0.40;0.40;;;20.30;40.20;20.10;99042.00;;;;5134792;28;20663;-74
2022/05/26 10:49:37;;;;;;;0.50;0.50;;;20.40;38.90;20.20;99052.00;;;;5134899;28;20555;-75
2022/05/26 10:52:12;;;;;;;0.33;0.33;;;20.60;38.60;20.30;99054.00;;;;5134753;28;20213;-75
2022/05/26 10:54:52;;;;;;;0.60;0.60;;;20.70;40.10;20.60;99056.00;;;;5134907;28;20208;-75
2022/05/26 10:57:30;;;;;;;0.60;0.60;;;20.90;38.30;20.20;99057.00;;;;5117024;28;20677;-76
2022/05/26 11:00:04;;;;;;;0.50;0.50;;;20.70;38.20;19.80;99039.00;;;;5134819;28;20213;-77
2022/05/26 11:02:46;;;;;;;0.50;0.50;;;20.40;38.10;20.20;99050.00;;;;5134807;28;20221;-75
2022/05/26 11:05:22;;;;;;;0.50;0.50;;;20.50;39.00;20.40;99049.00;;;;5134725;28;20238;-75
2022/05/26 11:07:54;;;;;;;0.47;0.47;;;20.70;39.10;20.30;99056.00;;;;5134627;28;20307;-75
2022/05/26 11:10:28;;;;;;;0.63;0.63;;;20.70;39.50;20.30;99059.00;;;;5116592;28;20547;-75
2022/05/26 11:13:08;;;;;;;0.83;0.83;;;20.60;39.00;20.00;99052.00;;;;5134475;28;20551;-75
2022/05/26 11:18:39;;;;;;;0.30;0.30;;;20.40;39.00;19.60;99044.00;;;;5116249;28;20536;-75
2022/05/26 11:21:06;;;;;;;0.40;0.40;;;;;19.90;99037.00;;;;5134526;28;20201;-74
2022/05/26 11:23:38;;;;;;;0.60;0.60;;;20.30;40.10;20.30;99049.00;;;;5134635;27;20225;-75
2022/05/26 11:26:19;;;;;;;0.50;0.50;;;20.60;41.20;20.50;99051.00;;;;5138156;28;20635;-74
2022/05/26 11:28:53;;;;;;;0.70;0.70;;;20.70;40.20;20.70;99050.00;;;;5138089;28;20253;-75
2022/05/26 11:37:25;;;;;;;0.67;0.67;;;21.00;39.10;20.70;99050.00;;;;5138094;28;20209;-75
2022/05/26 11:39:56;;;;;;;0.40;0.40;;;21.10;39.40;20.40;99036.00;;;;5137831;28;20221;-74
2022/05/26 11:42:32;;;;;;;0.40;0.40;;;21.00;39.90;20.20;99058.00;;;;5137915;28;20208;-74
2022/05/26 11:45:17;;;;;;;0.60;0.60;;;20.80;40.00;20.00;99053.00;;;;5137986;28;20216;-74
2022/05/26 11:47:58;;;;;;;0.60;0.60;;;20.50;40.00;19.80;99060.00;;;;5137844;28;20293;-74
2022/05/26 11:50:58;;;;;;;0.60;0.60;;;20.30;41.50;19.50;99065.00;;;;5137723;28;20664;-74
2022/05/26 11:53:44;;;;;;;0.33;0.33;;;20.10;42.20;19.30;99061.00;;;;5137770;28;20203;-76
2022/05/26 11:56:46;;;;;;;0.87;0.87;;;19.80;43.00;19.40;99056.00;;;;5137750;28;20189;-74